sensor_id;sensor_type;location;lat;lon;timestamp;temperature;humidity
53926;DHT22;39836;52.754;6.866;2024-03-23T00:55:13;6.20;84.90
53926;DHT22;39836;52.754;6.866;2024-03-23T00:57:38;6.20;84.90
53926;DHT22;39836;52.754;6.866;2024-03-23T01:00:05;6.30;85.00
53926;DHT22;39836;52.754;6.866;2024-03-23T01:02:34;6.20;85.00
53926;DHT22;39836;52.754;6.866;2024-03-23T01:05:00;6.20;85.00
53926;DHT22;39836;52.754;6.866;2024-03-23T01:07:26;6.30;85.00
53926;DHT22;39836;52.754;6.866;2024-03-23T01:09:51;6.20;85.00
53926;DHT22;39836;52.754;6.866;2024-03-23T01:12:18;6.30;85.10
53926;DHT22;39836;52.754;6.866;2024-03-23T01:14:44;6.30;85.10
53926;DHT22;39836;52.754;6.866;2024-03-23T01:17:10;6.20;85.10
53926;DHT22;39836;52.754;6.866;2024-03-23T01:19:35;6.20;85.10
53926;DHT22;39836;52.754;6.866;2024-03-23T01:22:01;6.30;85.10
53926;DHT22;39836;52.754;6.866;2024-03-23T01:24:27;6.30;85.10
53926;DHT22;39836;52.754;6.866;2024-03-23T01:26:52;6.30;85.10
53926;DHT22;39836;52.754;6.866;2024-03-23T01:29:18;6.30;85.10
53926;DHT22;39836;52.754;6.866;2024-03-23T01:31:44;6.20;85.10
53926;DHT22;39836;52.754;6.866;2024-03-23T01:34:09;6.30;85.10
53926;DHT22;39836;52.754;6.866;2024-03-23T01:36:35;6.30;85.10
53926;DHT22;39836;52.754;6.866;2024-03-23T01:39:01;6.30;85.10
53926;DHT22;39836;52.754;6.866;2024-03-23T01:41:26;6.20;85.10
53926;DHT22;39836;52.754;6.866;2024-03-23T01:43:55;6.20;85.10
53926;DHT22;39836;52.754;6.866;2024-03-23T01:46:20;6.20;85.10
53926;DHT22;39836;52.754;6.866;2024-03-23T01:48:46;6.20;85.10
53926;DHT22;39836;52.754;6.866;2024-03-23T01:51:13;6.10;85.00
53926;DHT22;39836;52.754;6.866;2024-03-23T01:53:38;6.30;85.10
53926;DHT22;39836;52.754;6.866;2024-03-23T01:56:05;6.00;84.90
53926;DHT22;39836;52.754;6.866;2024-03-23T01:58:31;6.00;84.90
53926;DHT22;39836;52.754;6.866;2024-03-23T02:00:57;5.90;84.90
53926;DHT22;39836;52.754;6.866;2024-03-23T02:03:24;5.90;84.80
53926;DHT22;39836;52.754;6.866;2024-03-23T02:05:50;5.90;84.80
53926;DHT22;39836;52.754;6.866;2024-03-23T02:08:23;5.70;84.80
53926;DHT22;39836;52.754;6.866;2024-03-23T02:10:49;5.70;84.80
53926;DHT22;39836;52.754;6.866;2024-03-23T02:13:16;5.60;84.70
53926;DHT22;39836;52.754;6.866;2024-03-23T02:15:42;5.60;84.70
53926;DHT22;39836;52.754;6.866;2024-03-23T02:18:08;5.50;84.70
53926;DHT22;39836;52.754;6.866;2024-03-23T02:20:35;5.50;84.70
53926;DHT22;39836;52.754;6.866;2024-03-23T02:23:00;5.40;84.60
53926;DHT22;39836;52.754;6.866;2024-03-23T02:25:26;5.30;84.60
53926;DHT22;39836;52.754;6.866;2024-03-23T02:27:52;5.20;84.50
53926;DHT22;39836;52.754;6.866;2024-03-23T02:30:19;5.20;84.60
53926;DHT22;39836;52.754;6.866;2024-03-23T02:32:45;5.10;84.50
53926;DHT22;39836;52.754;6.866;2024-03-23T02:35:11;5.10;84.60
53926;DHT22;39836;52.754;6.866;2024-03-23T02:37:37;5.00;84.50
53926;DHT22;39836;52.754;6.866;2024-03-23T02:40:03;5.00;84.60
53926;DHT22;39836;52.754;6.866;2024-03-23T02:42:28;5.00;84.60
53926;DHT22;39836;52.754;6.866;2024-03-23T02:44:54;4.90;84.50
53926;DHT22;39836;52.754;6.866;2024-03-23T02:47:20;5.00;84.60
53926;DHT22;39836;52.754;6.866;2024-03-23T02:49:45;4.90;84.60
53926;DHT22;39836;52.754;6.866;2024-03-23T02:52:11;4.90;84.50
53926;DHT22;39836;52.754;6.866;2024-03-23T02:54:37;4.80;84.50
53926;DHT22;39836;52.754;6.866;2024-03-23T02:57:02;4.80;84.50
53926;DHT22;39836;52.754;6.866;2024-03-23T02:59:28;4.70;84.40
53926;DHT22;39836;52.754;6.866;2024-03-23T03:01:54;4.60;84.40
53926;DHT22;39836;52.754;6.866;2024-03-23T03:04:19;4.60;84.40
53926;DHT22;39836;52.754;6.866;2024-03-23T03:06:47;4.60;84.40
53926;DHT22;39836;52.754;6.866;2024-03-23T03:09:13;4.60;84.50
53926;DHT22;39836;52.754;6.866;2024-03-23T03:11:38;4.50;84.40
53926;DHT22;39836;52.754;6.866;2024-03-23T03:14:04;4.60;84.50
53926;DHT22;39836;52.754;6.866;2024-03-23T03:16:32;4.60;84.50
53926;DHT22;39836;52.754;6.866;2024-03-23T03:18:58;4.60;84.50
53926;DHT22;39836;52.754;6.866;2024-03-23T03:21:24;4.50;84.50
53926;DHT22;39836;52.754;6.866;2024-03-23T03:23:50;4.60;84.50
53926;DHT22;39836;52.754;6.866;2024-03-23T03:26:17;4.60;84.50
53926;DHT22;39836;52.754;6.866;2024-03-23T03:28:42;4.60;84.60
53926;DHT22;39836;52.754;6.866;2024-03-23T03:31:08;4.60;84.60
53926;DHT22;39836;52.754;6.866;2024-03-23T03:33:34;4.50;84.50
53926;DHT22;39836;52.754;6.866;2024-03-23T03:36:00;4.50;84.50
53926;DHT22;39836;52.754;6.866;2024-03-23T03:38:25;4.50;84.50
53926;DHT22;39836;52.754;6.866;2024-03-23T03:40:51;4.40;84.40
53926;DHT22;39836;52.754;6.866;2024-03-23T03:43:18;4.40;84.30
53926;DHT22;39836;52.754;6.866;2024-03-23T03:45:51;4.30;84.20
53926;DHT22;39836;52.754;6.866;2024-03-23T03:48:17;4.10;84.10
53926;DHT22;39836;52.754;6.866;2024-03-23T03:50:43;4.10;84.00
53926;DHT22;39836;52.754;6.866;2024-03-23T03:53:09;3.90;84.00
53926;DHT22;39836;52.754;6.866;2024-03-23T03:55:34;3.90;84.00
53926;DHT22;39836;52.754;6.866;2024-03-23T03:58:00;3.80;84.00
53926;DHT22;39836;52.754;6.866;2024-03-23T04:00:26;3.70;83.90
53926;DHT22;39836;52.754;6.866;2024-03-23T04:02:51;3.70;84.00
53926;DHT22;39836;52.754;6.866;2024-03-23T04:05:17;3.70;84.00
53926;DHT22;39836;52.754;6.866;2024-03-23T04:07:42;3.70;84.00
53926;DHT22;39836;52.754;6.866;2024-03-23T04:10:08;3.70;84.10
53926;DHT22;39836;52.754;6.866;2024-03-23T04:12:34;3.70;84.10
53926;DHT22;39836;52.754;6.866;2024-03-23T04:15:00;3.60;84.10
53926;DHT22;39836;52.754;6.866;2024-03-23T04:17:29;3.70;84.20
53926;DHT22;39836;52.754;6.866;2024-03-23T04:19:58;3.70;84.20
53926;DHT22;39836;52.754;6.866;2024-03-23T04:22:24;3.70;84.20
53926;DHT22;39836;52.754;6.866;2024-03-23T04:24:58;3.70;84.20
53926;DHT22;39836;52.754;6.866;2024-03-23T04:27:24;3.70;84.30
53926;DHT22;39836;52.754;6.866;2024-03-23T04:29:51;3.80;84.30
53926;DHT22;39836;52.754;6.866;2024-03-23T04:32:16;3.80;84.40
53926;DHT22;39836;52.754;6.866;2024-03-23T04:34:43;3.70;84.30
53926;DHT22;39836;52.754;6.866;2024-03-23T04:37:10;3.80;84.40
53926;DHT22;39836;52.754;6.866;2024-03-23T04:39:38;3.70;84.30
53926;DHT22;39836;52.754;6.866;2024-03-23T04:42:04;3.70;84.30
53926;DHT22;39836;52.754;6.866;2024-03-23T04:44:30;3.70;84.30
53926;DHT22;39836;52.754;6.866;2024-03-23T04:47:00;3.70;84.40
53926;DHT22;39836;52.754;6.866;2024-03-23T04:49:26;3.70;84.30
53926;DHT22;39836;52.754;6.866;2024-03-23T04:51:51;3.70;84.40
53926;DHT22;39836;52.754;6.866;2024-03-23T04:54:17;3.70;84.40
53926;DHT22;39836;52.754;6.866;2024-03-23T04:56:43;3.60;84.30
53926;DHT22;39836;52.754;6.866;2024-03-23T04:59:08;3.60;84.30
53926;DHT22;39836;52.754;6.866;2024-03-23T05:01:34;3.60;84.20
53926;DHT22;39836;52.754;6.866;2024-03-23T05:04:01;3.50;84.20
53926;DHT22;39836;52.754;6.866;2024-03-23T05:06:27;3.40;84.10
53926;DHT22;39836;52.754;6.866;2024-03-23T05:08:52;3.40;84.10
53926;DHT22;39836;52.754;6.866;2024-03-23T05:11:18;3.40;84.10
53926;DHT22;39836;52.754;6.866;2024-03-23T05:13:45;3.40;84.20
53926;DHT22;39836;52.754;6.866;2024-03-23T05:16:10;3.30;84.10
53926;DHT22;39836;52.754;6.866;2024-03-23T05:18:36;3.30;84.20
53926;DHT22;39836;52.754;6.866;2024-03-23T05:21:02;3.30;84.10
53926;DHT22;39836;52.754;6.866;2024-03-23T05:23:28;3.30;84.20
53926;DHT22;39836;52.754;6.866;2024-03-23T05:25:55;3.30;84.20
53926;DHT22;39836;52.754;6.866;2024-03-23T05:28:21;3.40;84.30
53926;DHT22;39836;52.754;6.866;2024-03-23T05:30:54;3.40;84.30
53926;DHT22;39836;52.754;6.866;2024-03-23T05:33:20;3.40;84.30
53926;DHT22;39836;52.754;6.866;2024-03-23T05:35:46;3.30;84.20
53926;DHT22;39836;52.754;6.866;2024-03-23T05:38:13;3.30;84.20
53926;DHT22;39836;52.754;6.866;2024-03-23T05:40:39;3.30;84.20
53926;DHT22;39836;52.754;6.866;2024-03-23T05:43:06;3.30;84.20
53926;DHT22;39836;52.754;6.866;2024-03-23T05:45:33;3.30;84.20
53926;DHT22;39836;52.754;6.866;2024-03-23T05:47:58;3.30;84.20
53926;DHT22;39836;52.754;6.866;2024-03-23T05:50:24;3.20;84.20
53926;DHT22;39836;52.754;6.866;2024-03-23T05:52:50;3.20;84.20
53926;DHT22;39836;52.754;6.866;2024-03-23T05:55:16;3.30;84.20
53926;DHT22;39836;52.754;6.866;2024-03-23T05:57:42;3.20;84.20
53926;DHT22;39836;52.754;6.866;2024-03-23T06:00:08;3.20;84.20
53926;DHT22;39836;52.754;6.866;2024-03-23T06:02:44;3.20;84.20
53926;DHT22;39836;52.754;6.866;2024-03-23T06:05:13;3.20;84.20
53926;DHT22;39836;52.754;6.866;2024-03-23T06:07:39;3.30;84.20
53926;DHT22;39836;52.754;6.866;2024-03-23T06:10:05;3.30;84.20
53926;DHT22;39836;52.754;6.866;2024-03-23T06:12:32;3.30;84.30
53926;DHT22;39836;52.754;6.866;2024-03-23T06:14:57;3.30;84.30
53926;DHT22;39836;52.754;6.866;2024-03-23T06:17:23;3.30;84.30
53926;DHT22;39836;52.754;6.866;2024-03-23T06:19:49;3.40;84.40
53926;DHT22;39836;52.754;6.866;2024-03-23T06:22:15;3.40;84.40
53926;DHT22;39836;52.754;6.866;2024-03-23T06:24:41;3.50;84.50
53926;DHT22;39836;52.754;6.866;2024-03-23T06:27:06;3.50;84.50
53926;DHT22;39836;52.754;6.866;2024-03-23T06:29:32;3.70;84.60
53926;DHT22;39836;52.754;6.866;2024-03-23T06:31:58;3.70;84.70
53926;DHT22;39836;52.754;6.866;2024-03-23T06:34:24;3.90;84.80
53926;DHT22;39836;52.754;6.866;2024-03-23T06:36:50;4.00;84.90
53926;DHT22;39836;52.754;6.866;2024-03-23T06:39:16;4.20;85.20
53926;DHT22;39836;52.754;6.866;2024-03-23T06:41:51;4.30;85.20
53926;DHT22;39836;52.754;6.866;2024-03-23T06:44:18;4.50;85.30
53926;DHT22;39836;52.754;6.866;2024-03-23T06:46:44;4.70;85.50
53926;DHT22;39836;52.754;6.866;2024-03-23T06:49:10;4.90;85.50
53926;DHT22;39836;52.754;6.866;2024-03-23T06:51:36;5.00;85.50
53926;DHT22;39836;52.754;6.866;2024-03-23T06:54:03;5.10;85.40
53926;DHT22;39836;52.754;6.866;2024-03-23T06:56:29;5.10;85.30
53926;DHT22;39836;52.754;6.866;2024-03-23T06:58:56;5.10;85.20
53926;DHT22;39836;52.754;6.866;2024-03-23T07:01:22;5.20;85.20
53926;DHT22;39836;52.754;6.866;2024-03-23T07:03:47;5.10;85.10
53926;DHT22;39836;52.754;6.866;2024-03-23T07:06:16;5.10;85.00
53926;DHT22;39836;52.754;6.866;2024-03-23T07:08:42;5.10;85.00
53926;DHT22;39836;52.754;6.866;2024-03-23T07:11:08;5.20;85.00
53926;DHT22;39836;52.754;6.866;2024-03-23T07:13:34;5.10;84.80
53926;DHT22;39836;52.754;6.866;2024-03-23T07:15:59;5.10;84.70
53926;DHT22;39836;52.754;6.866;2024-03-23T07:18:25;5.10;84.60
53926;DHT22;39836;52.754;6.866;2024-03-23T07:20:55;5.00;84.50
53926;DHT22;39836;52.754;6.866;2024-03-23T07:23:22;5.00;84.50
53926;DHT22;39836;52.754;6.866;2024-03-23T07:28:23;5.00;84.50
53926;DHT22;39836;52.754;6.866;2024-03-23T07:31:01;5.00;84.50
53926;DHT22;39836;52.754;6.866;2024-03-23T07:33:27;5.00;84.50
53926;DHT22;39836;52.754;6.866;2024-03-23T07:35:52;5.10;84.70
53926;DHT22;39836;52.754;6.866;2024-03-23T07:38:18;5.30;84.90
53926;DHT22;39836;52.754;6.866;2024-03-23T07:40:44;5.50;85.10
53926;DHT22;39836;52.754;6.866;2024-03-23T07:43:09;5.70;85.20
53926;DHT22;39836;52.754;6.866;2024-03-23T07:45:35;5.80;85.20
53926;DHT22;39836;52.754;6.866;2024-03-23T07:48:00;5.90;85.10
53926;DHT22;39836;52.754;6.866;2024-03-23T07:50:26;6.00;85.10
53926;DHT22;39836;52.754;6.866;2024-03-23T07:52:52;6.00;85.20
53926;DHT22;39836;52.754;6.866;2024-03-23T07:55:17;6.00;84.80
53926;DHT22;39836;52.754;6.866;2024-03-23T07:57:43;6.00;84.70
53926;DHT22;39836;52.754;6.866;2024-03-23T08:00:09;6.20;84.90
53926;DHT22;39836;52.754;6.866;2024-03-23T08:02:35;6.40;85.00
53926;DHT22;39836;52.754;6.866;2024-03-23T08:05:00;6.70;85.30
53926;DHT22;39836;52.754;6.866;2024-03-23T08:07:26;6.80;85.10
53926;DHT22;39836;52.754;6.866;2024-03-23T08:09:51;6.70;84.70
53926;DHT22;39836;52.754;6.866;2024-03-23T08:12:17;6.30;84.40
53926;DHT22;39836;52.754;6.866;2024-03-23T08:14:43;6.10;84.50
53926;DHT22;39836;52.754;6.866;2024-03-23T08:17:08;5.90;84.40
53926;DHT22;39836;52.754;6.866;2024-03-23T08:19:34;5.70;84.30
53926;DHT22;39836;52.754;6.866;2024-03-23T08:22:00;5.50;84.30
53926;DHT22;39836;52.754;6.866;2024-03-23T08:24:25;5.40;84.40
53926;DHT22;39836;52.754;6.866;2024-03-23T08:26:51;5.40;84.40
53926;DHT22;39836;52.754;6.866;2024-03-23T08:29:17;5.40;84.60
53926;DHT22;39836;52.754;6.866;2024-03-23T08:31:42;5.50;84.80
53926;DHT22;39836;52.754;6.866;2024-03-23T08:34:08;5.60;84.90
53926;DHT22;39836;52.754;6.866;2024-03-23T08:36:33;5.70;85.10
53926;DHT22;39836;52.754;6.866;2024-03-23T08:38:59;5.80;85.20
53926;DHT22;39836;52.754;6.866;2024-03-23T08:41:25;6.00;85.20
53926;DHT22;39836;52.754;6.866;2024-03-23T08:43:51;6.00;85.10
53926;DHT22;39836;52.754;6.866;2024-03-23T08:46:17;6.10;85.10
53926;DHT22;39836;52.754;6.866;2024-03-23T08:48:46;6.20;85.10
53926;DHT22;39836;52.754;6.866;2024-03-23T08:51:15;6.40;85.40
53926;DHT22;39836;52.754;6.866;2024-03-23T08:53:41;6.50;85.20
53926;DHT22;39836;52.754;6.866;2024-03-23T08:56:09;6.70;84.90
53926;DHT22;39836;52.754;6.866;2024-03-23T08:58:35;6.60;84.70
53926;DHT22;39836;52.754;6.866;2024-03-23T09:01:07;6.70;85.10
53926;DHT22;39836;52.754;6.866;2024-03-23T09:03:33;6.70;84.90
53926;DHT22;39836;52.754;6.866;2024-03-23T09:05:59;6.70;84.60
53926;DHT22;39836;52.754;6.866;2024-03-23T09:08:25;6.70;84.40
53926;DHT22;39836;52.754;6.866;2024-03-23T09:10:52;6.70;84.30
53926;DHT22;39836;52.754;6.866;2024-03-23T09:13:18;6.70;84.80
53926;DHT22;39836;52.754;6.866;2024-03-23T09:15:51;6.70;84.10
53926;DHT22;39836;52.754;6.866;2024-03-23T09:18:17;6.70;84.30
53926;DHT22;39836;52.754;6.866;2024-03-23T09:20:43;6.80;84.20
53926;DHT22;39836;52.754;6.866;2024-03-23T09:23:09;6.90;84.60
53926;DHT22;39836;52.754;6.866;2024-03-23T09:25:38;7.00;84.30
53926;DHT22;39836;52.754;6.866;2024-03-23T09:28:18;7.10;84.30
53926;DHT22;39836;52.754;6.866;2024-03-23T09:30:48;7.20;83.60
53926;DHT22;39836;52.754;6.866;2024-03-23T09:33:20;7.40;84.30
53926;DHT22;39836;52.754;6.866;2024-03-23T09:35:47;7.60;84.10
53926;DHT22;39836;52.754;6.866;2024-03-23T09:38:16;7.60;83.30
53926;DHT22;39836;52.754;6.866;2024-03-23T18:38:47;4.80;80.70
53926;DHT22;39836;52.754;6.866;2024-03-23T18:41:19;4.80;80.70
53926;DHT22;39836;52.754;6.866;2024-03-23T18:44:04;4.80;80.80
53926;DHT22;39836;52.754;6.866;2024-03-23T18:46:54;4.80;80.90
53926;DHT22;39836;52.754;6.866;2024-03-23T18:49:35;4.70;80.80
53926;DHT22;39836;52.754;6.866;2024-03-23T18:52:05;4.70;80.90
53926;DHT22;39836;52.754;6.866;2024-03-23T18:54:30;4.80;81.00
53926;DHT22;39836;52.754;6.866;2024-03-23T18:56:56;4.80;81.10
53926;DHT22;39836;52.754;6.866;2024-03-23T18:59:22;4.80;81.20
53926;DHT22;39836;52.754;6.866;2024-03-23T19:01:47;4.90;81.20
53926;DHT22;39836;52.754;6.866;2024-03-23T19:04:13;4.90;81.20
53926;DHT22;39836;52.754;6.866;2024-03-23T19:06:39;4.90;81.10
53926;DHT22;39836;52.754;6.866;2024-03-23T19:09:05;4.90;81.10
53926;DHT22;39836;52.754;6.866;2024-03-23T19:11:30;4.90;81.00
53926;DHT22;39836;52.754;6.866;2024-03-23T19:13:56;4.80;80.90
53926;DHT22;39836;52.754;6.866;2024-03-23T19:16:22;4.80;81.00
53926;DHT22;39836;52.754;6.866;2024-03-23T19:18:47;4.80;81.00
53926;DHT22;39836;52.754;6.866;2024-03-23T19:21:13;4.70;81.00
53926;DHT22;39836;52.754;6.866;2024-03-23T19:23:39;4.80;81.10
53926;DHT22;39836;52.754;6.866;2024-03-23T19:26:04;4.80;81.10
53926;DHT22;39836;52.754;6.866;2024-03-23T19:28:30;4.80;81.00
53926;DHT22;39836;52.754;6.866;2024-03-23T19:30:56;4.80;80.80
53926;DHT22;39836;52.754;6.866;2024-03-23T19:33:23;4.80;80.80
53926;DHT22;39836;52.754;6.866;2024-03-23T19:35:55;4.80;80.80
53926;DHT22;39836;52.754;6.866;2024-03-23T19:38:21;4.70;80.70
53926;DHT22;39836;52.754;6.866;2024-03-23T19:40:54;4.60;80.80
53926;DHT22;39836;52.754;6.866;2024-03-23T19:43:20;4.60;80.80
53926;DHT22;39836;52.754;6.866;2024-03-23T19:45:46;4.60;80.90
53926;DHT22;39836;52.754;6.866;2024-03-23T19:48:11;4.60;80.90
53926;DHT22;39836;52.754;6.866;2024-03-23T19:50:37;4.70;80.90
53926;DHT22;39836;52.754;6.866;2024-03-23T19:53:02;4.60;80.90
53926;DHT22;39836;52.754;6.866;2024-03-23T19:55:30;4.60;80.90
53926;DHT22;39836;52.754;6.866;2024-03-23T19:57:56;4.60;80.90
53926;DHT22;39836;52.754;6.866;2024-03-23T20:00:24;4.50;80.80
53926;DHT22;39836;52.754;6.866;2024-03-23T20:02:49;4.50;80.90
53926;DHT22;39836;52.754;6.866;2024-03-23T20:05:16;4.50;80.90
53926;DHT22;39836;52.754;6.866;2024-03-23T20:07:41;4.50;80.80
53926;DHT22;39836;52.754;6.866;2024-03-23T20:10:07;4.50;80.90
53926;DHT22;39836;52.754;6.866;2024-03-23T20:12:35;4.50;80.80
53926;DHT22;39836;52.754;6.866;2024-03-23T20:15:01;4.50;80.80
53926;DHT22;39836;52.754;6.866;2024-03-23T20:17:27;4.50;80.80
53926;DHT22;39836;52.754;6.866;2024-03-23T20:19:52;4.60;80.80
53926;DHT22;39836;52.754;6.866;2024-03-23T20:22:18;4.70;81.00
53926;DHT22;39836;52.754;6.866;2024-03-23T20:24:44;4.60;80.90
53926;DHT22;39836;52.754;6.866;2024-03-23T20:27:09;4.70;80.90
53926;DHT22;39836;52.754;6.866;2024-03-23T20:29:35;4.80;80.90
53926;DHT22;39836;52.754;6.866;2024-03-23T20:32:01;4.80;80.80
53926;DHT22;39836;52.754;6.866;2024-03-23T20:34:28;4.80;80.70
53926;DHT22;39836;52.754;6.866;2024-03-23T20:36:54;4.80;80.70
53926;DHT22;39836;52.754;6.866;2024-03-23T20:39:22;4.80;80.70
53926;DHT22;39836;52.754;6.866;2024-03-23T20:41:48;4.90;80.70
53926;DHT22;39836;52.754;6.866;2024-03-23T20:44:14;4.70;80.70
53926;DHT22;39836;52.754;6.866;2024-03-23T20:46:39;4.70;80.80
53926;DHT22;39836;52.754;6.866;2024-03-23T20:49:05;4.70;80.90
53926;DHT22;39836;52.754;6.866;2024-03-23T20:51:32;4.70;80.90
53926;DHT22;39836;52.754;6.866;2024-03-23T20:53:58;4.70;81.00
53926;DHT22;39836;52.754;6.866;2024-03-23T20:56:24;4.60;80.90
53926;DHT22;39836;52.754;6.866;2024-03-23T20:58:50;4.60;81.00
53926;DHT22;39836;52.754;6.866;2024-03-23T21:01:16;4.50;81.00
53926;DHT22;39836;52.754;6.866;2024-03-23T21:03:41;4.40;80.90
53926;DHT22;39836;52.754;6.866;2024-03-23T21:06:07;4.40;81.00
53926;DHT22;39836;52.754;6.866;2024-03-23T21:08:33;4.30;81.10
53926;DHT22;39836;52.754;6.866;2024-03-23T21:11:00;4.40;81.00
53926;DHT22;39836;52.754;6.866;2024-03-23T21:13:31;4.20;81.00
53926;DHT22;39836;52.754;6.866;2024-03-23T21:16:00;4.20;81.00
53926;DHT22;39836;52.754;6.866;2024-03-23T21:18:30;4.10;80.90
53926;DHT22;39836;52.754;6.866;2024-03-23T21:20:57;4.10;80.90
53926;DHT22;39836;52.754;6.866;2024-03-23T21:23:27;4.10;81.00
53926;DHT22;39836;52.754;6.866;2024-03-23T21:25:59;4.00;80.90
53926;DHT22;39836;52.754;6.866;2024-03-23T21:28:25;4.00;81.00
53926;DHT22;39836;52.754;6.866;2024-03-23T21:30:51;4.00;81.10
53926;DHT22;39836;52.754;6.866;2024-03-23T21:33:17;4.00;81.10
53926;DHT22;39836;52.754;6.866;2024-03-23T21:35:42;4.00;81.10
53926;DHT22;39836;52.754;6.866;2024-03-23T21:38:08;4.00;81.10
53926;DHT22;39836;52.754;6.866;2024-03-23T21:40:34;4.00;81.20
53926;DHT22;39836;52.754;6.866;2024-03-23T21:42:59;4.00;81.20
53926;DHT22;39836;52.754;6.866;2024-03-23T21:45:25;4.00;81.30
53926;DHT22;39836;52.754;6.866;2024-03-23T21:47:51;4.00;81.30
53926;DHT22;39836;52.754;6.866;2024-03-23T21:50:16;4.00;81.30
53926;DHT22;39836;52.754;6.866;2024-03-23T21:52:42;4.00;81.30
53926;DHT22;39836;52.754;6.866;2024-03-23T21:55:08;4.00;81.40
53926;DHT22;39836;52.754;6.866;2024-03-23T21:57:37;4.00;81.50
53926;DHT22;39836;52.754;6.866;2024-03-23T22:00:03;4.00;81.50
53926;DHT22;39836;52.754;6.866;2024-03-23T22:02:29;4.00;81.50
53926;DHT22;39836;52.754;6.866;2024-03-23T22:04:54;4.10;81.60
53926;DHT22;39836;52.754;6.866;2024-03-23T22:07:20;4.10;81.60
53926;DHT22;39836;52.754;6.866;2024-03-23T22:09:52;4.00;81.60
53926;DHT22;39836;52.754;6.866;2024-03-23T22:12:19;4.00;81.60
53926;DHT22;39836;52.754;6.866;2024-03-23T22:14:45;4.10;81.70
53926;DHT22;39836;52.754;6.866;2024-03-23T22:17:11;4.10;81.70
53926;DHT22;39836;52.754;6.866;2024-03-23T22:19:37;4.10;81.80
53926;DHT22;39836;52.754;6.866;2024-03-23T22:22:02;4.10;81.80
53926;DHT22;39836;52.754;6.866;2024-03-23T22:24:28;4.10;81.80
53926;DHT22;39836;52.754;6.866;2024-03-23T22:26:54;4.20;81.90
53926;DHT22;39836;52.754;6.866;2024-03-23T22:29:20;4.20;81.90
53926;DHT22;39836;52.754;6.866;2024-03-23T22:31:46;4.20;81.90
53926;DHT22;39836;52.754;6.866;2024-03-23T22:34:11;4.20;82.00
53926;DHT22;39836;52.754;6.866;2024-03-23T22:36:37;4.20;82.00
53926;DHT22;39836;52.754;6.866;2024-03-23T22:39:03;4.20;82.00
53926;DHT22;39836;52.754;6.866;2024-03-23T22:41:29;4.30;82.00
53926;DHT22;39836;52.754;6.866;2024-03-23T22:43:55;4.30;82.00
53926;DHT22;39836;52.754;6.866;2024-03-23T22:46:21;4.30;82.00
53926;DHT22;39836;52.754;6.866;2024-03-23T22:48:46;4.30;82.00
53926;DHT22;39836;52.754;6.866;2024-03-23T22:51:12;4.30;82.00
53926;DHT22;39836;52.754;6.866;2024-03-23T22:53:38;4.30;81.90
53926;DHT22;39836;52.754;6.866;2024-03-23T22:56:04;4.30;81.90
53926;DHT22;39836;52.754;6.866;2024-03-23T22:58:29;4.30;81.90
53926;DHT22;39836;52.754;6.866;2024-03-23T23:00:55;4.30;81.90
53926;DHT22;39836;52.754;6.866;2024-03-23T23:03:23;4.40;81.90
53926;DHT22;39836;52.754;6.866;2024-03-23T23:06:03;4.40;81.90
53926;DHT22;39836;52.754;6.866;2024-03-23T23:08:33;4.40;81.90
53926;DHT22;39836;52.754;6.866;2024-03-23T23:11:00;4.40;81.90
53926;DHT22;39836;52.754;6.866;2024-03-23T23:13:25;4.40;81.90
53926;DHT22;39836;52.754;6.866;2024-03-23T23:15:52;4.40;81.90
53926;DHT22;39836;52.754;6.866;2024-03-23T23:18:21;4.50;82.00
53926;DHT22;39836;52.754;6.866;2024-03-23T23:20:50;4.50;82.00
53926;DHT22;39836;52.754;6.866;2024-03-23T23:23:16;4.50;82.00
53926;DHT22;39836;52.754;6.866;2024-03-23T23:25:42;4.60;82.00
53926;DHT22;39836;52.754;6.866;2024-03-23T23:28:07;4.60;82.00
53926;DHT22;39836;52.754;6.866;2024-03-23T23:30:33;4.60;82.00
53926;DHT22;39836;52.754;6.866;2024-03-23T23:32:59;4.60;82.00
53926;DHT22;39836;52.754;6.866;2024-03-23T23:35:25;4.70;82.00
53926;DHT22;39836;52.754;6.866;2024-03-23T23:37:51;4.70;81.90
53926;DHT22;39836;52.754;6.866;2024-03-23T23:40:18;4.70;82.00
53926;DHT22;39836;52.754;6.866;2024-03-23T23:42:44;4.70;81.90
53926;DHT22;39836;52.754;6.866;2024-03-23T23:45:10;4.70;81.90
53926;DHT22;39836;52.754;6.866;2024-03-23T23:47:37;4.70;81.90
53926;DHT22;39836;52.754;6.866;2024-03-23T23:50:06;4.70;81.90
53926;DHT22;39836;52.754;6.866;2024-03-23T23:52:32;4.70;81.90
53926;DHT22;39836;52.754;6.866;2024-03-23T23:54:58;4.70;81.90
53926;DHT22;39836;52.754;6.866;2024-03-23T23:57:24;4.80;82.00
53926;DHT22;39836;52.754;6.866;2024-03-23T23:59:50;4.80;81.90
